sensor_id;sensor_type;location;lat;lon;timestamp;P1;durP1;ratioP1;P2;durP2;ratioP2
22780;SDS011;11557;50.884;4.322;2023-11-19T00:00:31;14.75;;;3.92;;
22780;SDS011;11557;50.884;4.322;2023-11-19T00:02:56;9.88;;;3.10;;
22780;SDS011;11557;50.884;4.322;2023-11-19T00:05:22;12.80;;;3.75;;
22780;SDS011;11557;50.884;4.322;2023-11-19T00:07:47;11.02;;;3.30;;
22780;SDS011;11557;50.884;4.322;2023-11-19T00:10:13;16.83;;;3.88;;
22780;SDS011;11557;50.884;4.322;2023-11-19T00:12:44;11.25;;;3.47;;
22780;SDS011;11557;50.884;4.322;2023-11-19T00:15:12;10.20;;;3.35;;
22780;SDS011;11557;50.884;4.322;2023-11-19T00:17:39;16.30;;;3.75;;
22780;SDS011;11557;50.884;4.322;2023-11-19T00:22:40;16.98;;;4.40;;
22780;SDS011;11557;50.884;4.322;2023-11-19T00:25:06;12.35;;;3.38;;
22780;SDS011;11557;50.884;4.322;2023-11-19T00:27:33;11.38;;;3.03;;
22780;SDS011;11557;50.884;4.322;2023-11-19T00:29:58;15.75;;;4.18;;
22780;SDS011;11557;50.884;4.322;2023-11-19T00:32:24;13.23;;;3.45;;
22780;SDS011;11557;50.884;4.322;2023-11-19T00:34:50;18.23;;;4.10;;
22780;SDS011;11557;50.884;4.322;2023-11-19T00:37:16;16.45;;;3.47;;
22780;SDS011;11557;50.884;4.322;2023-11-19T00:39:42;14.55;;;3.63;;
22780;SDS011;11557;50.884;4.322;2023-11-19T00:42:08;12.43;;;3.63;;
22780;SDS011;11557;50.884;4.322;2023-11-19T00:44:35;16.25;;;3.28;;
22780;SDS011;11557;50.884;4.322;2023-11-19T00:47:01;9.38;;;3.08;;
22780;SDS011;11557;50.884;4.322;2023-11-19T00:49:26;14.55;;;3.33;;
22780;SDS011;11557;50.884;4.322;2023-11-19T00:51:52;13.40;;;3.50;;
22780;SDS011;11557;50.884;4.322;2023-11-19T00:54:18;19.90;;;3.83;;
22780;SDS011;11557;50.884;4.322;2023-11-19T00:56:43;12.65;;;3.03;;
22780;SDS011;11557;50.884;4.322;2023-11-19T00:59:09;15.35;;;2.85;;
22780;SDS011;11557;50.884;4.322;2023-11-19T01:01:35;15.98;;;2.85;;
22780;SDS011;11557;50.884;4.322;2023-11-19T01:04:01;17.17;;;3.03;;
22780;SDS011;11557;50.884;4.322;2023-11-19T01:06:27;14.48;;;3.03;;
22780;SDS011;11557;50.884;4.322;2023-11-19T01:08:54;18.02;;;2.88;;
22780;SDS011;11557;50.884;4.322;2023-11-19T01:11:21;17.80;;;2.97;;
22780;SDS011;11557;50.884;4.322;2023-11-19T01:13:48;19.08;;;3.05;;
22780;SDS011;11557;50.884;4.322;2023-11-19T01:16:13;15.57;;;2.83;;
22780;SDS011;11557;50.884;4.322;2023-11-19T01:18:39;14.70;;;2.70;;
22780;SDS011;11557;50.884;4.322;2023-11-19T01:21:05;15.05;;;2.90;;
22780;SDS011;11557;50.884;4.322;2023-11-19T01:23:30;21.65;;;3.15;;
22780;SDS011;11557;50.884;4.322;2023-11-19T01:25:57;18.50;;;3.47;;
22780;SDS011;11557;50.884;4.322;2023-11-19T01:28:23;19.88;;;3.58;;
22780;SDS011;11557;50.884;4.322;2023-11-19T01:30:52;14.63;;;3.08;;
22780;SDS011;11557;50.884;4.322;2023-11-19T01:33:17;14.07;;;2.83;;
22780;SDS011;11557;50.884;4.322;2023-11-19T01:35:43;22.42;;;3.13;;
22780;SDS011;11557;50.884;4.322;2023-11-19T01:38:09;20.85;;;3.22;;
22780;SDS011;11557;50.884;4.322;2023-11-19T01:40:35;23.67;;;3.15;;
22780;SDS011;11557;50.884;4.322;2023-11-19T01:43:03;16.13;;;3.42;;
22780;SDS011;11557;50.884;4.322;2023-11-19T01:45:29;21.52;;;4.00;;
22780;SDS011;11557;50.884;4.322;2023-11-19T01:47:56;17.58;;;3.97;;
22780;SDS011;11557;50.884;4.322;2023-11-19T01:50:24;25.52;;;4.07;;
22780;SDS011;11557;50.884;4.322;2023-11-19T01:52:53;19.52;;;3.97;;
22780;SDS011;11557;50.884;4.322;2023-11-19T01:55:19;25.25;;;3.78;;
22780;SDS011;11557;50.884;4.322;2023-11-19T01:57:46;21.52;;;3.75;;
22780;SDS011;11557;50.884;4.322;2023-11-19T02:00:14;16.75;;;3.38;;
22780;SDS011;11557;50.884;4.322;2023-11-19T02:02:41;22.35;;;2.85;;
22780;SDS011;11557;50.884;4.322;2023-11-19T02:05:08;19.92;;;3.35;;
22780;SDS011;11557;50.884;4.322;2023-11-19T02:07:36;12.15;;;2.78;;
22780;SDS011;11557;50.884;4.322;2023-11-19T02:10:01;24.98;;;4.03;;
22780;SDS011;11557;50.884;4.322;2023-11-19T02:12:28;34.85;;;4.00;;
22780;SDS011;11557;50.884;4.322;2023-11-19T02:14:54;35.35;;;4.22;;
22780;SDS011;11557;50.884;4.322;2023-11-19T02:17:26;25.92;;;3.83;;
22780;SDS011;11557;50.884;4.322;2023-11-19T02:19:57;24.02;;;3.97;;
22780;SDS011;11557;50.884;4.322;2023-11-19T02:22:23;20.33;;;2.90;;
22780;SDS011;11557;50.884;4.322;2023-11-19T02:24:51;29.00;;;3.05;;
22780;SDS011;11557;50.884;4.322;2023-11-19T02:27:31;30.60;;;3.92;;
22780;SDS011;11557;50.884;4.322;2023-11-19T02:30:16;28.10;;;3.42;;
22780;SDS011;11557;50.884;4.322;2023-11-19T02:32:42;32.08;;;3.83;;
22780;SDS011;11557;50.884;4.322;2023-11-19T02:35:08;33.67;;;3.58;;
22780;SDS011;11557;50.884;4.322;2023-11-19T02:37:34;33.33;;;4.18;;
22780;SDS011;11557;50.884;4.322;2023-11-19T02:40:00;23.60;;;3.72;;
22780;SDS011;11557;50.884;4.322;2023-11-19T02:42:28;34.28;;;3.90;;
22780;SDS011;11557;50.884;4.322;2023-11-19T02:44:54;28.58;;;3.70;;
22780;SDS011;11557;50.884;4.322;2023-11-19T02:47:20;22.45;;;3.33;;
22780;SDS011;11557;50.884;4.322;2023-11-19T02:49:46;23.38;;;3.60;;
22780;SDS011;11557;50.884;4.322;2023-11-19T02:52:13;32.20;;;3.63;;
22780;SDS011;11557;50.884;4.322;2023-11-19T02:54:39;26.67;;;4.53;;
22780;SDS011;11557;50.884;4.322;2023-11-19T02:57:06;29.67;;;3.65;;
22780;SDS011;11557;50.884;4.322;2023-11-19T02:59:35;16.23;;;2.92;;
22780;SDS011;11557;50.884;4.322;2023-11-19T03:02:06;34.53;;;4.40;;
22780;SDS011;11557;50.884;4.322;2023-11-19T03:04:37;25.98;;;3.35;;
22780;SDS011;11557;50.884;4.322;2023-11-19T03:07:07;21.38;;;3.10;;
22780;SDS011;11557;50.884;4.322;2023-11-19T03:09:33;21.35;;;3.63;;
22780;SDS011;11557;50.884;4.322;2023-11-19T03:12:00;24.55;;;2.83;;
22780;SDS011;11557;50.884;4.322;2023-11-19T03:14:26;33.95;;;4.13;;
22780;SDS011;11557;50.884;4.322;2023-11-19T03:16:52;23.20;;;3.65;;
22780;SDS011;11557;50.884;4.322;2023-11-19T03:19:18;21.05;;;3.08;;
22780;SDS011;11557;50.884;4.322;2023-11-19T03:21:44;37.05;;;4.22;;
22780;SDS011;11557;50.884;4.322;2023-11-19T03:24:10;18.55;;;3.88;;
22780;SDS011;11557;50.884;4.322;2023-11-19T03:26:38;27.17;;;3.05;;
22780;SDS011;11557;50.884;4.322;2023-11-19T03:29:04;23.73;;;4.20;;
22780;SDS011;11557;50.884;4.322;2023-11-19T03:31:30;24.05;;;3.13;;
22780;SDS011;11557;50.884;4.322;2023-11-19T03:33:56;22.17;;;3.28;;
22780;SDS011;11557;50.884;4.322;2023-11-19T03:36:21;27.30;;;3.75;;
22780;SDS011;11557;50.884;4.322;2023-11-19T03:38:47;24.05;;;4.07;;
22780;SDS011;11557;50.884;4.322;2023-11-19T03:41:13;23.83;;;4.22;;
22780;SDS011;11557;50.884;4.322;2023-11-19T03:43:39;28.85;;;3.63;;
22780;SDS011;11557;50.884;4.322;2023-11-19T03:46:16;25.52;;;3.88;;
22780;SDS011;11557;50.884;4.322;2023-11-19T03:48:44;19.55;;;3.92;;
22780;SDS011;11557;50.884;4.322;2023-11-19T03:51:13;24.60;;;3.65;;
22780;SDS011;11557;50.884;4.322;2023-11-19T03:53:43;33.95;;;4.88;;
22780;SDS011;11557;50.884;4.322;2023-11-19T03:56:10;26.17;;;4.38;;
22780;SDS011;11557;50.884;4.322;2023-11-19T03:58:37;23.33;;;2.88;;
22780;SDS011;11557;50.884;4.322;2023-11-19T04:01:04;36.55;;;4.05;;
22780;SDS011;11557;50.884;4.322;2023-11-19T04:03:30;23.58;;;3.10;;
22780;SDS011;11557;50.884;4.322;2023-11-19T04:05:56;32.25;;;4.32;;
22780;SDS011;11557;50.884;4.322;2023-11-19T04:08:22;26.15;;;3.80;;
22780;SDS011;11557;50.884;4.322;2023-11-19T04:10:48;24.85;;;3.58;;
22780;SDS011;11557;50.884;4.322;2023-11-19T04:13:14;30.63;;;4.15;;
22780;SDS011;11557;50.884;4.322;2023-11-19T04:15:39;30.60;;;4.65;;
22780;SDS011;11557;50.884;4.322;2023-11-19T04:18:05;19.17;;;3.50;;
22780;SDS011;11557;50.884;4.322;2023-11-19T04:20:31;29.05;;;4.30;;
22780;SDS011;11557;50.884;4.322;2023-11-19T04:22:57;31.73;;;4.13;;
22780;SDS011;11557;50.884;4.322;2023-11-19T04:25:23;23.65;;;4.10;;
22780;SDS011;11557;50.884;4.322;2023-11-19T04:27:51;41.80;;;4.65;;
22780;SDS011;11557;50.884;4.322;2023-11-19T04:30:19;30.88;;;4.47;;
22780;SDS011;11557;50.884;4.322;2023-11-19T04:32:45;30.83;;;4.75;;
22780;SDS011;11557;50.884;4.322;2023-11-19T04:35:11;26.25;;;3.95;;
22780;SDS011;11557;50.884;4.322;2023-11-19T04:37:37;28.88;;;3.85;;
22780;SDS011;11557;50.884;4.322;2023-11-19T04:40:03;27.95;;;3.72;;
22780;SDS011;11557;50.884;4.322;2023-11-19T04:42:29;25.80;;;4.00;;
22780;SDS011;11557;50.884;4.322;2023-11-19T04:44:55;26.27;;;4.70;;
22780;SDS011;11557;50.884;4.322;2023-11-19T04:47:20;29.45;;;4.20;;
22780;SDS011;11557;50.884;4.322;2023-11-19T04:49:46;34.45;;;4.05;;
22780;SDS011;11557;50.884;4.322;2023-11-19T04:52:12;35.95;;;3.92;;
22780;SDS011;11557;50.884;4.322;2023-11-19T04:54:43;34.95;;;4.43;;
22780;SDS011;11557;50.884;4.322;2023-11-19T04:57:09;31.98;;;4.75;;
22780;SDS011;11557;50.884;4.322;2023-11-19T04:59:36;26.35;;;4.38;;
22780;SDS011;11557;50.884;4.322;2023-11-19T05:02:02;34.38;;;4.95;;
22780;SDS011;11557;50.884;4.322;2023-11-19T05:04:29;35.25;;;4.50;;
22780;SDS011;11557;50.884;4.322;2023-11-19T05:06:55;38.15;;;4.50;;
22780;SDS011;11557;50.884;4.322;2023-11-19T05:09:20;39.53;;;5.57;;
22780;SDS011;11557;50.884;4.322;2023-11-19T05:11:46;30.00;;;4.15;;
22780;SDS011;11557;50.884;4.322;2023-11-19T05:14:12;33.05;;;5.53;;
22780;SDS011;11557;50.884;4.322;2023-11-19T05:16:40;40.42;;;4.78;;
22780;SDS011;11557;50.884;4.322;2023-11-19T05:19:07;39.38;;;5.40;;
22780;SDS011;11557;50.884;4.322;2023-11-19T05:21:34;37.22;;;5.40;;
22780;SDS011;11557;50.884;4.322;2023-11-19T05:24:01;44.25;;;5.18;;
22780;SDS011;11557;50.884;4.322;2023-11-19T05:26:30;37.08;;;4.55;;
22780;SDS011;11557;50.884;4.322;2023-11-19T05:28:56;31.55;;;4.20;;
22780;SDS011;11557;50.884;4.322;2023-11-19T05:31:22;27.80;;;4.18;;
22780;SDS011;11557;50.884;4.322;2023-11-19T05:33:47;39.20;;;5.80;;
22780;SDS011;11557;50.884;4.322;2023-11-19T05:36:13;39.20;;;4.45;;
22780;SDS011;11557;50.884;4.322;2023-11-19T05:38:39;31.55;;;4.22;;
22780;SDS011;11557;50.884;4.322;2023-11-19T05:41:05;37.80;;;4.85;;
22780;SDS011;11557;50.884;4.322;2023-11-19T05:43:31;39.30;;;4.68;;
22780;SDS011;11557;50.884;4.322;2023-11-19T05:45:57;38.67;;;5.18;;
22780;SDS011;11557;50.884;4.322;2023-11-19T05:48:25;32.05;;;4.57;;
22780;SDS011;11557;50.884;4.322;2023-11-19T05:50:51;25.05;;;3.78;;
22780;SDS011;11557;50.884;4.322;2023-11-19T05:53:17;30.55;;;5.05;;
22780;SDS011;11557;50.884;4.322;2023-11-19T05:55:42;37.25;;;5.30;;
22780;SDS011;11557;50.884;4.322;2023-11-19T05:58:15;27.17;;;5.07;;
22780;SDS011;11557;50.884;4.322;2023-11-19T06:00:41;27.85;;;4.18;;
22780;SDS011;11557;50.884;4.322;2023-11-19T06:03:06;32.30;;;4.82;;
22780;SDS011;11557;50.884;4.322;2023-11-19T06:05:32;29.02;;;5.03;;
22780;SDS011;11557;50.884;4.322;2023-11-19T06:07:58;39.05;;;4.03;;
22780;SDS011;11557;50.884;4.322;2023-11-19T06:10:24;33.70;;;5.13;;
22780;SDS011;11557;50.884;4.322;2023-11-19T06:12:56;37.67;;;5.45;;
22780;SDS011;11557;50.884;4.322;2023-11-19T06:15:26;33.47;;;5.45;;
22780;SDS011;11557;50.884;4.322;2023-11-19T06:17:54;34.38;;;5.40;;
22780;SDS011;11557;50.884;4.322;2023-11-19T06:20:20;41.17;;;5.32;;
22780;SDS011;11557;50.884;4.322;2023-11-19T06:22:46;36.55;;;5.05;;
22780;SDS011;11557;50.884;4.322;2023-11-19T06:25:12;38.90;;;4.32;;
22780;SDS011;11557;50.884;4.322;2023-11-19T06:27:40;33.65;;;5.45;;
22780;SDS011;11557;50.884;4.322;2023-11-19T06:30:07;30.42;;;4.95;;
22780;SDS011;11557;50.884;4.322;2023-11-19T06:32:33;38.08;;;4.97;;
22780;SDS011;11557;50.884;4.322;2023-11-19T06:34:59;31.58;;;4.40;;
22780;SDS011;11557;50.884;4.322;2023-11-19T06:37:25;40.05;;;6.30;;
22780;SDS011;11557;50.884;4.322;2023-11-19T06:39:52;37.42;;;4.57;;
22780;SDS011;11557;50.884;4.322;2023-11-19T06:42:17;33.22;;;4.90;;
22780;SDS011;11557;50.884;4.322;2023-11-19T06:44:43;27.70;;;4.38;;
22780;SDS011;11557;50.884;4.322;2023-11-19T06:47:09;37.42;;;4.80;;
22780;SDS011;11557;50.884;4.322;2023-11-19T06:49:35;33.05;;;5.18;;
22780;SDS011;11557;50.884;4.322;2023-11-19T06:52:00;36.47;;;4.95;;
22780;SDS011;11557;50.884;4.322;2023-11-19T06:54:26;29.75;;;5.07;;
22780;SDS011;11557;50.884;4.322;2023-11-19T06:56:51;26.83;;;4.50;;
22780;SDS011;11557;50.884;4.322;2023-11-19T06:59:17;29.00;;;4.32;;
22780;SDS011;11557;50.884;4.322;2023-11-19T07:01:43;36.97;;;5.70;;
22780;SDS011;11557;50.884;4.322;2023-11-19T07:04:11;31.23;;;4.15;;
22780;SDS011;11557;50.884;4.322;2023-11-19T07:06:37;35.53;;;4.55;;
22780;SDS011;11557;50.884;4.322;2023-11-19T07:09:06;29.70;;;4.97;;
22780;SDS011;11557;50.884;4.322;2023-11-19T07:11:38;33.58;;;4.65;;
22780;SDS011;11557;50.884;4.322;2023-11-19T07:14:05;37.00;;;5.03;;
22780;SDS011;11557;50.884;4.322;2023-11-19T07:16:32;32.95;;;4.43;;
22780;SDS011;11557;50.884;4.322;2023-11-19T07:19:07;29.75;;;4.40;;
22780;SDS011;11557;50.884;4.322;2023-11-19T07:21:33;34.70;;;5.90;;
22780;SDS011;11557;50.884;4.322;2023-11-19T07:23:59;28.90;;;4.90;;
22780;SDS011;11557;50.884;4.322;2023-11-19T07:26:25;30.83;;;5.15;;
22780;SDS011;11557;50.884;4.322;2023-11-19T07:28:50;40.45;;;5.07;;
22780;SDS011;11557;50.884;4.322;2023-11-19T07:31:16;27.73;;;4.93;;
22780;SDS011;11557;50.884;4.322;2023-11-19T07:33:45;36.85;;;6.25;;
22780;SDS011;11557;50.884;4.322;2023-11-19T07:36:12;34.15;;;4.97;;
22780;SDS011;11557;50.884;4.322;2023-11-19T07:38:41;38.53;;;4.80;;
22780;SDS011;11557;50.884;4.322;2023-11-19T07:41:07;42.55;;;5.18;;
22780;SDS011;11557;50.884;4.322;2023-11-19T07:43:39;41.38;;;6.28;;
22780;SDS011;11557;50.884;4.322;2023-11-19T07:46:10;36.50;;;4.80;;
22780;SDS011;11557;50.884;4.322;2023-11-19T07:48:38;38.60;;;4.82;;
22780;SDS011;11557;50.884;4.322;2023-11-19T07:51:07;32.83;;;5.00;;
22780;SDS011;11557;50.884;4.322;2023-11-19T07:53:33;42.38;;;5.30;;
22780;SDS011;11557;50.884;4.322;2023-11-19T07:55:59;26.55;;;4.38;;
22780;SDS011;11557;50.884;4.322;2023-11-19T07:58:26;27.95;;;4.28;;
22780;SDS011;11557;50.884;4.322;2023-11-19T08:00:52;34.08;;;5.18;;
22780;SDS011;11557;50.884;4.322;2023-11-19T08:03:17;33.72;;;5.28;;
22780;SDS011;11557;50.884;4.322;2023-11-19T08:05:49;34.30;;;5.40;;
22780;SDS011;11557;50.884;4.322;2023-11-19T08:08:15;25.80;;;4.28;;
22780;SDS011;11557;50.884;4.322;2023-11-19T08:10:41;31.90;;;4.63;;
22780;SDS011;11557;50.884;4.322;2023-11-19T08:13:09;36.15;;;4.45;;
22780;SDS011;11557;50.884;4.322;2023-11-19T08:15:35;36.15;;;4.68;;
22780;SDS011;11557;50.884;4.322;2023-11-19T08:18:01;36.38;;;5.28;;
22780;SDS011;11557;50.884;4.322;2023-11-19T08:20:27;32.35;;;4.47;;
22780;SDS011;11557;50.884;4.322;2023-11-19T08:22:53;32.72;;;4.65;;
22780;SDS011;11557;50.884;4.322;2023-11-19T08:25:19;24.42;;;3.75;;
22780;SDS011;11557;50.884;4.322;2023-11-19T08:27:45;28.67;;;4.60;;
22780;SDS011;11557;50.884;4.322;2023-11-19T08:30:12;31.27;;;3.85;;
22780;SDS011;11557;50.884;4.322;2023-11-19T08:32:38;30.77;;;4.55;;
22780;SDS011;11557;50.884;4.322;2023-11-19T08:35:04;31.70;;;4.55;;
22780;SDS011;11557;50.884;4.322;2023-11-19T08:37:30;35.58;;;5.18;;
22780;SDS011;11557;50.884;4.322;2023-11-19T08:39:56;30.60;;;4.22;;
22780;SDS011;11557;50.884;4.322;2023-11-19T08:42:21;23.27;;;4.53;;
22780;SDS011;11557;50.884;4.322;2023-11-19T08:44:50;31.83;;;5.35;;
22780;SDS011;11557;50.884;4.322;2023-11-19T08:47:19;24.80;;;4.15;;
22780;SDS011;11557;50.884;4.322;2023-11-19T08:49:45;25.92;;;4.47;;
22780;SDS011;11557;50.884;4.322;2023-11-19T08:52:11;30.23;;;3.88;;
22780;SDS011;11557;50.884;4.322;2023-11-19T08:54:37;30.15;;;4.80;;
22780;SDS011;11557;50.884;4.322;2023-11-19T08:57:03;22.80;;;3.45;;
22780;SDS011;11557;50.884;4.322;2023-11-19T08:59:29;27.35;;;4.20;;
22780;SDS011;11557;50.884;4.322;2023-11-19T09:01:55;26.85;;;4.28;;
22780;SDS011;11557;50.884;4.322;2023-11-19T09:04:21;32.55;;;5.95;;
22780;SDS011;11557;50.884;4.322;2023-11-19T09:06:49;26.00;;;3.55;;
22780;SDS011;11557;50.884;4.322;2023-11-19T09:09:15;44.20;;;5.40;;
22780;SDS011;11557;50.884;4.322;2023-11-19T09:11:40;28.65;;;5.28;;
22780;SDS011;11557;50.884;4.322;2023-11-19T09:14:07;40.88;;;4.57;;
22780;SDS011;11557;50.884;4.322;2023-11-19T09:16:33;26.25;;;4.47;;
22780;SDS011;11557;50.884;4.322;2023-11-19T09:18:59;28.00;;;4.40;;
22780;SDS011;11557;50.884;4.322;2023-11-19T09:21:28;35.45;;;4.63;;
22780;SDS011;11557;50.884;4.322;2023-11-19T09:23:56;24.33;;;4.32;;
22780;SDS011;11557;50.884;4.322;2023-11-19T09:26:22;31.38;;;5.03;;
22780;SDS011;11557;50.884;4.322;2023-11-19T09:28:48;29.48;;;5.00;;
22780;SDS011;11557;50.884;4.322;2023-11-19T09:31:14;36.40;;;4.78;;
22780;SDS011;11557;50.884;4.322;2023-11-19T09:33:40;22.63;;;3.83;;
22780;SDS011;11557;50.884;4.322;2023-11-19T09:36:06;20.10;;;4.28;;
22780;SDS011;11557;50.884;4.322;2023-11-19T09:38:31;27.80;;;4.03;;
22780;SDS011;11557;50.884;4.322;2023-11-19T09:41:00;26.35;;;4.50;;
22780;SDS011;11557;50.884;4.322;2023-11-19T09:43:27;23.10;;;4.03;;
22780;SDS011;11557;50.884;4.322;2023-11-19T09:45:56;22.73;;;3.42;;
22780;SDS011;11557;50.884;4.322;2023-11-19T09:48:23;26.73;;;4.43;;
22780;SDS011;11557;50.884;4.322;2023-11-19T09:50:51;24.27;;;3.97;;
22780;SDS011;11557;50.884;4.322;2023-11-19T09:53:17;25.83;;;4.63;;
22780;SDS011;11557;50.884;4.322;2023-11-19T09:55:45;26.17;;;3.92;;
22780;SDS011;11557;50.884;4.322;2023-11-19T09:58:11;25.98;;;4.40;;
22780;SDS011;11557;50.884;4.322;2023-11-19T10:00:39;17.90;;;3.70;;
22780;SDS011;11557;50.884;4.322;2023-11-19T10:03:06;29.45;;;4.20;;
22780;SDS011;11557;50.884;4.322;2023-11-19T10:05:35;24.15;;;3.33;;
22780;SDS011;11557;50.884;4.322;2023-11-19T10:08:03;25.42;;;3.58;;
22780;SDS011;11557;50.884;4.322;2023-11-19T10:10:29;18.60;;;3.70;;
22780;SDS011;11557;50.884;4.322;2023-11-19T10:12:54;23.98;;;3.95;;
22780;SDS011;11557;50.884;4.322;2023-11-19T10:15:21;16.33;;;3.63;;
22780;SDS011;11557;50.884;4.322;2023-11-19T10:17:49;20.38;;;3.97;;
22780;SDS011;11557;50.884;4.322;2023-11-19T10:20:15;24.70;;;3.45;;
22780;SDS011;11557;50.884;4.322;2023-11-19T10:22:40;22.20;;;3.92;;
22780;SDS011;11557;50.884;4.322;2023-11-19T10:25:22;21.50;;;4.13;;
22780;SDS011;11557;50.884;4.322;2023-11-19T10:27:50;19.75;;;3.72;;
22780;SDS011;11557;50.884;4.322;2023-11-19T10:30:23;24.83;;;4.22;;
22780;SDS011;11557;50.884;4.322;2023-11-19T10:33:12;17.52;;;3.35;;
22780;SDS011;11557;50.884;4.322;2023-11-19T10:35:55;30.60;;;4.43;;
22780;SDS011;11557;50.884;4.322;2023-11-19T10:38:22;23.20;;;3.60;;
22780;SDS011;11557;50.884;4.322;2023-11-19T10:40:48;22.05;;;3.70;;
22780;SDS011;11557;50.884;4.322;2023-11-19T10:43:16;21.77;;;3.22;;
22780;SDS011;11557;50.884;4.322;2023-11-19T10:45:42;21.20;;;3.63;;
22780;SDS011;11557;50.884;4.322;2023-11-19T10:48:08;20.70;;;4.45;;
22780;SDS011;11557;50.884;4.322;2023-11-19T10:50:35;26.10;;;4.57;;
22780;SDS011;11557;50.884;4.322;2023-11-19T10:53:02;22.88;;;3.88;;
22780;SDS011;11557;50.884;4.322;2023-11-19T10:55:33;16.30;;;3.35;;
22780;SDS011;11557;50.884;4.322;2023-11-19T10:58:06;24.75;;;4.78;;
22780;SDS011;11557;50.884;4.322;2023-11-19T11:00:39;19.08;;;3.10;;
22780;SDS011;11557;50.884;4.322;2023-11-19T11:03:16;23.60;;;3.80;;
22780;SDS011;11557;50.884;4.322;2023-11-19T11:05:45;20.15;;;3.35;;
22780;SDS011;11557;50.884;4.322;2023-11-19T11:08:12;22.75;;;3.72;;
22780;SDS011;11557;50.884;4.322;2023-11-19T11:10:52;18.95;;;4.15;;
22780;SDS011;11557;50.884;4.322;2023-11-19T11:13:19;22.35;;;4.63;;
22780;SDS011;11557;50.884;4.322;2023-11-19T11:15:49;27.50;;;4.85;;
22780;SDS011;11557;50.884;4.322;2023-11-19T11:18:15;24.63;;;4.45;;
22780;SDS011;11557;50.884;4.322;2023-11-19T11:20:44;21.45;;;4.05;;
22780;SDS011;11557;50.884;4.322;2023-11-19T11:23:15;26.17;;;3.90;;
22780;SDS011;11557;50.884;4.322;2023-11-19T11:26:06;26.83;;;5.03;;
22780;SDS011;11557;50.884;4.322;2023-11-19T11:31:31;19.13;;;4.30;;
22780;SDS011;11557;50.884;4.322;2023-11-19T11:34:20;17.33;;;3.20;;
22780;SDS011;11557;50.884;4.322;2023-11-19T11:39:28;31.00;;;5.13;;
22780;SDS011;11557;50.884;4.322;2023-11-19T11:48:00;27.75;;;4.07;;
22780;SDS011;11557;50.884;4.322;2023-11-19T11:50:21;25.05;;;3.72;;
22780;SDS011;11557;50.884;4.322;2023-11-19T11:55:26;26.10;;;4.57;;
22780;SDS011;11557;50.884;4.322;2023-11-19T11:57:53;21.83;;;4.30;;
22780;SDS011;11557;50.884;4.322;2023-11-19T12:02:55;21.05;;;4.15;;
22780;SDS011;11557;50.884;4.322;2023-11-19T12:05:21;21.00;;;3.78;;
22780;SDS011;11557;50.884;4.322;2023-11-19T12:10:26;22.77;;;3.90;;
22780;SDS011;11557;50.884;4.322;2023-11-19T12:12:59;16.60;;;3.22;;
22780;SDS011;11557;50.884;4.322;2023-11-19T12:15:31;16.92;;;2.65;;
22780;SDS011;11557;50.884;4.322;2023-11-19T12:17:58;20.52;;;3.47;;
22780;SDS011;11557;50.884;4.322;2023-11-19T12:20:24;17.80;;;2.65;;
22780;SDS011;11557;50.884;4.322;2023-11-19T12:22:52;22.80;;;3.50;;
22780;SDS011;11557;50.884;4.322;2023-11-19T12:25:18;17.48;;;3.13;;
22780;SDS011;11557;50.884;4.322;2023-11-19T12:27:48;20.63;;;3.10;;
22780;SDS011;11557;50.884;4.322;2023-11-19T12:30:25;16.63;;;3.17;;
22780;SDS011;11557;50.884;4.322;2023-11-19T12:32:51;21.63;;;3.55;;
22780;SDS011;11557;50.884;4.322;2023-11-19T12:35:18;18.48;;;3.20;;
22780;SDS011;11557;50.884;4.322;2023-11-19T12:37:45;23.52;;;3.85;;
22780;SDS011;11557;50.884;4.322;2023-11-19T12:42:45;23.30;;;4.15;;
22780;SDS011;11557;50.884;4.322;2023-11-19T12:45:11;27.40;;;4.97;;
22780;SDS011;11557;50.884;4.322;2023-11-19T12:47:39;20.50;;;3.08;;
22780;SDS011;11557;50.884;4.322;2023-11-19T12:50:06;29.15;;;4.10;;
22780;SDS011;11557;50.884;4.322;2023-11-19T12:52:33;22.20;;;3.20;;
22780;SDS011;11557;50.884;4.322;2023-11-19T12:55:03;20.65;;;3.80;;
22780;SDS011;11557;50.884;4.322;2023-11-19T12:57:49;27.63;;;3.53;;
22780;SDS011;11557;50.884;4.322;2023-11-19T13:00:18;19.92;;;4.25;;
22780;SDS011;11557;50.884;4.322;2023-11-19T13:02:48;20.75;;;3.47;;
22780;SDS011;11557;50.884;4.322;2023-11-19T13:05:30;16.52;;;3.42;;
22780;SDS011;11557;50.884;4.322;2023-11-19T13:10:28;20.58;;;3.35;;
22780;SDS011;11557;50.884;4.322;2023-11-19T13:13:01;26.45;;;4.15;;
22780;SDS011;11557;50.884;4.322;2023-11-19T13:15:36;26.35;;;4.20;;
22780;SDS011;11557;50.884;4.322;2023-11-19T13:18:02;26.25;;;4.22;;
22780;SDS011;11557;50.884;4.322;2023-11-19T13:20:28;27.20;;;3.83;;
22780;SDS011;11557;50.884;4.322;2023-11-19T13:22:54;19.20;;;3.78;;
22780;SDS011;11557;50.884;4.322;2023-11-19T13:25:27;14.75;;;3.17;;
22780;SDS011;11557;50.884;4.322;2023-11-19T13:27:53;23.77;;;3.92;;
22780;SDS011;11557;50.884;4.322;2023-11-19T13:30:20;16.23;;;3.47;;
22780;SDS011;11557;50.884;4.322;2023-11-19T13:32:47;29.27;;;3.90;;
22780;SDS011;11557;50.884;4.322;2023-11-19T13:35:13;17.25;;;3.45;;
22780;SDS011;11557;50.884;4.322;2023-11-19T13:37:39;22.17;;;3.58;;
22780;SDS011;11557;50.884;4.322;2023-11-19T13:40:08;23.70;;;4.57;;
22780;SDS011;11557;50.884;4.322;2023-11-19T13:42:35;19.60;;;5.45;;
22780;SDS011;11557;50.884;4.322;2023-11-19T13:45:04;33.90;;;7.32;;
22780;SDS011;11557;50.884;4.322;2023-11-19T13:47:30;31.88;;;6.80;;
22780;SDS011;11557;50.884;4.322;2023-11-19T13:49:56;27.60;;;5.50;;
22780;SDS011;11557;50.884;4.322;2023-11-19T13:52:22;36.30;;;6.60;;
22780;SDS011;11557;50.884;4.322;2023-11-19T13:54:47;36.58;;;6.38;;
22780;SDS011;11557;50.884;4.322;2023-11-19T13:57:13;26.52;;;7.05;;
22780;SDS011;11557;50.884;4.322;2023-11-19T13:59:39;32.75;;;6.10;;
22780;SDS011;11557;50.884;4.322;2023-11-19T14:02:06;25.98;;;6.88;;
22780;SDS011;11557;50.884;4.322;2023-11-19T14:04:32;37.15;;;7.22;;
22780;SDS011;11557;50.884;4.322;2023-11-19T14:06:58;25.52;;;5.18;;
22780;SDS011;11557;50.884;4.322;2023-11-19T14:09:24;34.33;;;5.20;;
22780;SDS011;11557;50.884;4.322;2023-11-19T14:11:50;27.83;;;3.38;;
22780;SDS011;11557;50.884;4.322;2023-11-19T14:14:16;31.27;;;4.20;;
22780;SDS011;11557;50.884;4.322;2023-11-19T14:16:42;18.90;;;3.88;;
22780;SDS011;11557;50.884;4.322;2023-11-19T14:19:07;28.02;;;4.55;;
22780;SDS011;11557;50.884;4.322;2023-11-19T14:21:33;24.85;;;4.70;;
22780;SDS011;11557;50.884;4.322;2023-11-19T14:23:59;27.02;;;4.15;;
22780;SDS011;11557;50.884;4.322;2023-11-19T14:26:24;25.55;;;3.95;;
22780;SDS011;11557;50.884;4.322;2023-11-19T14:28:50;26.33;;;4.30;;
22780;SDS011;11557;50.884;4.322;2023-11-19T14:31:16;28.13;;;4.22;;
22780;SDS011;11557;50.884;4.322;2023-11-19T14:33:41;22.67;;;4.55;;
22780;SDS011;11557;50.884;4.322;2023-11-19T14:36:07;28.70;;;4.88;;
22780;SDS011;11557;50.884;4.322;2023-11-19T14:38:33;26.30;;;4.93;;
22780;SDS011;11557;50.884;4.322;2023-11-19T14:40:58;19.10;;;4.65;;
22780;SDS011;11557;50.884;4.322;2023-11-19T14:43:25;34.78;;;5.35;;
22780;SDS011;11557;50.884;4.322;2023-11-19T14:45:51;31.55;;;4.57;;
22780;SDS011;11557;50.884;4.322;2023-11-19T14:48:17;21.13;;;5.05;;
22780;SDS011;11557;50.884;4.322;2023-11-19T14:50:43;28.88;;;3.50;;
22780;SDS011;11557;50.884;4.322;2023-11-19T14:53:11;33.05;;;5.88;;
22780;SDS011;11557;50.884;4.322;2023-11-19T14:55:37;24.85;;;5.13;;
22780;SDS011;11557;50.884;4.322;2023-11-19T14:58:03;29.55;;;5.60;;
22780;SDS011;11557;50.884;4.322;2023-11-19T15:00:28;19.80;;;4.82;;
22780;SDS011;11557;50.884;4.322;2023-11-19T15:02:54;32.33;;;6.47;;